Time;durP1;ratioP1;P1;durP2;ratioP2;P2;SDS_P1;SDS_P2;PMS_P1;PMS_P2;Temp;Humidity;BMP_temperature;BMP_pressure;BME280_temperature;BME280_humidity;BME280_pressure;Samples;Min_cycle;Max_cycle;Signal;HPM_P1;HPM_P2
2021/10/01 00:00:17;;;;;;;2.63;2.20;;;8.20;68.10;;;7.47;53.16;95927.78;5019426;28;20234;-80
2021/10/01 00:02:45;;;;;;;3.55;2.50;;;8.20;68.10;;;7.43;53.27;95920.41;5052480;28;20204;-80
2021/10/01 00:05:12;;;;;;;3.25;2.40;;;8.10;68.10;;;7.42;53.42;95919.59;5052721;28;20568;-80
2021/10/01 00:07:40;;;;;;;2.63;2.30;;;8.10;68.10;;;7.37;53.23;95927.84;5035784;28;20224;-80
2021/10/01 00:10:07;;;;;;;2.50;2.30;;;8.20;68.10;;;7.37;53.31;95927.00;5036436;28;20184;-79
2021/10/01 00:12:35;;;;;;;3.80;2.33;;;8.10;68.10;;;7.33;53.46;95921.25;5036133;28;20282;-80
2021/10/01 00:15:05;;;;;;;2.25;2.05;;;8.10;68.10;;;7.31;53.26;95920.59;5035653;28;20736;-80
2021/10/01 00:17:32;;;;;;;3.30;2.60;;;8.10;68.20;;;7.30;53.48;95910.28;5068583;28;20493;-80
2021/10/01 00:20:00;;;;;;;3.40;2.55;;;8.00;68.20;;;7.25;53.49;95910.75;5052658;28;20197;-80
2021/10/01 00:22:27;;;;;;;3.55;2.45;;;8.00;68.20;;;7.26;53.40;95908.97;5052373;28;20662;-79
2021/10/01 00:24:54;;;;;;;4.85;2.58;;;8.00;68.30;;;7.27;53.88;95910.59;5068533;28;20220;-80
2021/10/01 00:27:21;;;;;;;4.47;2.30;;;8.00;68.40;;;7.27;53.79;95911.41;5052321;28;20208;-80
2021/10/01 00:29:48;;;;;;;4.55;2.63;;;8.00;68.50;;;7.24;53.82;95909.09;5035761;28;20242;-79
2021/10/01 00:32:15;;;;;;;3.08;2.20;;;8.00;68.40;;;7.20;53.72;95903.34;5034693;28;20221;-79
2021/10/01 00:34:43;;;;;;;2.70;2.20;;;8.00;68.40;;;7.19;53.79;95904.31;5035449;28;20287;-80
2021/10/01 00:37:10;;;;;;;2.72;2.20;;;7.90;68.40;;;7.19;53.68;95906.13;5068437;28;20633;-79
2021/10/01 00:39:37;;;;;;;3.75;2.40;;;7.90;68.50;;;7.16;53.72;95901.19;5068417;28;20234;-80
2021/10/01 00:42:04;;;;;;;3.13;2.25;;;7.90;68.50;;;7.17;53.90;95901.03;5068186;28;20228;-80
2021/10/01 00:44:32;;;;;;;2.78;2.25;;;7.90;68.50;;;7.14;53.57;95901.34;5035048;28;20638;-80
2021/10/01 00:46:59;;;;;;;3.35;2.63;;;8.00;68.70;;;7.14;53.82;95897.88;5035032;28;20219;-80
2021/10/01 00:49:26;;;;;;;2.90;2.60;;;7.90;68.60;;;7.13;53.66;95891.88;5035456;28;20593;-80
2021/10/01 00:51:53;;;;;;;3.22;2.55;;;7.80;68.60;;;7.13;53.84;95891.88;5018894;28;20216;-79
2021/10/01 00:54:22;;;;;;;3.88;2.30;;;7.80;68.60;;;7.09;53.86;95884.47;5018972;28;20196;-80
2021/10/01 00:56:49;;;;;;;4.38;2.70;;;7.80;68.70;;;7.08;54.00;95885.44;5051578;28;20239;-80
2021/10/01 00:59:17;;;;;;;3.60;2.20;;;7.80;68.70;;;7.12;53.95;95889.41;5035349;28;20192;-80
2021/10/01 01:01:44;;;;;;;3.08;2.75;;;7.80;68.70;;;7.12;53.75;95892.03;5034739;28;20650;-80
2021/10/01 01:04:11;;;;;;;3.25;2.65;;;7.80;68.70;;;7.08;53.93;95881.06;5031304;28;20570;-80
2021/10/01 01:07:02;;;;;;;3.13;2.45;;;7.80;68.80;;;7.09;54.24;95885.28;5031540;28;20229;-79
2021/10/01 01:09:44;;;;;;;3.50;2.40;;;7.80;69.40;;;7.08;54.25;95891.47;5041704;28;20655;-80
2021/10/01 01:13:02;;;;;;;2.67;2.28;;;7.80;69.20;;;7.03;54.00;95883.25;5034919;28;20677;-80
2021/10/01 01:15:39;;;;;;;2.72;2.47;;;7.80;69.60;;;6.99;53.99;95882.72;5051652;28;20219;-80
2021/10/01 01:18:24;;;;;;;2.83;2.40;;;7.80;69.00;;;6.98;54.06;95886.31;5021199;28;20321;-80
2021/10/01 01:20:53;;;;;;;3.13;2.75;;;7.80;69.50;;;6.99;53.95;95881.91;5034323;28;20227;-80
2021/10/01 01:23:51;;;;;;;2.85;2.65;;;7.70;68.80;;;6.97;53.97;95883.84;5034906;28;20200;-80
2021/10/01 01:27:08;;;;;;;3.08;2.70;;;7.70;69.10;;;6.93;54.12;95872.88;5034950;28;20270;-80
2021/10/01 01:30:07;;;;;;;3.28;2.97;;;7.70;69.60;;;6.89;54.05;95871.53;5050384;28;20542;-80
2021/10/01 01:32:42;;;;;;;3.15;2.60;;;7.70;69.70;;;6.86;54.22;95885.69;5035415;28;20231;-80
2021/10/01 01:35:26;;;;;;;2.75;2.42;;;7.60;68.90;;;6.86;54.05;95883.06;5018363;28;20597;-80
2021/10/01 01:37:58;;;;;;;4.45;2.75;;;7.70;69.20;;;6.83;54.31;95867.69;5018021;28;20199;-78
2021/10/01 01:40:30;;;;;;;3.35;2.60;;;7.70;69.00;;;6.84;54.23;95877.16;5017960;28;20196;-79
2021/10/01 01:42:59;;;;;;;4.97;3.40;;;7.60;69.10;;;6.83;54.00;95872.91;5034567;28;20579;-80
2021/10/01 01:45:28;;;;;;;3.17;2.70;;;7.60;69.00;;;6.82;54.12;95867.84;5051215;28;20211;-79
2021/10/01 01:47:57;;;;;;;3.63;2.75;;;7.50;68.90;;;6.81;54.45;95868.81;5017331;28;20203;-79
2021/10/01 01:50:24;;;;;;;3.25;2.92;;;7.50;68.90;;;6.78;54.37;95862.09;5031129;28;20196;-79
2021/10/01 01:52:53;;;;;;;4.63;3.50;;;7.60;69.10;;;6.73;54.41;95846.09;5031256;28;20188;-80
2021/10/01 01:55:22;;;;;;;6.32;3.20;;;7.50;69.10;;;6.80;54.74;95849.75;5047531;28;20565;-80
2021/10/01 01:57:52;;;;;;;4.15;3.10;;;7.50;69.30;;;6.80;54.72;95854.13;5028806;28;20692;-80
2021/10/01 02:00:38;;;;;;;5.07;3.03;;;7.50;69.20;;;6.78;54.00;95850.88;5036626;28;20236;-79
2021/10/01 02:03:06;;;;;;;5.97;2.80;;;7.50;69.10;;;6.74;54.30;95850.34;5033919;28;20285;-79
2021/10/01 02:05:35;;;;;;;4.47;3.10;;;7.50;69.70;;;6.73;54.67;95849.50;5018288;28;20199;-79
2021/10/01 02:08:03;;;;;;;4.40;3.08;;;7.50;69.20;;;6.73;54.77;95848.69;5050700;28;20556;-79
2021/10/01 02:10:32;;;;;;;3.60;2.60;;;7.50;69.30;;;6.71;54.48;95858.44;5018157;28;20196;-78
2021/10/01 02:13:03;;;;;;;3.13;2.83;;;7.40;69.20;;;6.69;54.58;95839.53;5014921;28;20204;-79
2021/10/01 02:15:36;;;;;;;3.75;2.80;;;7.50;69.40;;;6.64;54.44;95834.75;5032339;28;20199;-78
2021/10/01 02:18:05;;;;;;;3.85;3.00;;;7.40;69.30;;;6.66;54.66;95834.59;5030855;28;20225;-79
2021/10/01 02:20:36;;;;;;;2.65;2.45;;;7.40;69.30;;;6.65;54.53;95841.59;5030609;28;20208;-79
2021/10/01 02:23:04;;;;;;;3.25;2.80;;;7.40;69.50;;;6.63;54.95;95837.47;5039371;28;20204;-79
2021/10/01 02:28:31;;;;;;;3.83;2.88;;;7.40;69.40;;;6.60;54.66;95835.16;5048668;28;20205;-79
2021/10/01 02:31:02;;;;;;;4.25;3.47;;;7.40;69.90;;;6.57;54.92;95826.66;5053725;28;20218;-79
2021/10/01 02:33:41;;;;;;;3.75;3.00;;;7.30;69.60;;;6.52;54.72;95828.06;5037863;28;20286;-79
2021/10/01 02:36:08;;;;;;;3.97;2.90;;;7.30;69.90;;;6.50;54.59;95817.78;5054582;28;20222;-79
2021/10/01 02:38:41;;;;;;;3.47;3.13;;;7.30;69.30;;;6.52;54.89;95823.66;5086487;28;20279;-79
2021/10/01 02:41:10;;;;;;;4.47;3.28;;;7.30;69.30;;;6.48;54.87;95819.72;5086297;28;20219;-79
2021/10/01 02:43:38;;;;;;;4.07;3.03;;;7.30;69.50;;;6.50;54.73;95816.97;5021646;28;20192;-79
2021/10/01 02:46:08;;;;;;;4.32;3.20;;;7.30;69.60;;;6.51;54.83;95818.63;5037557;28;20256;-78
2021/10/01 02:48:36;;;;;;;3.83;3.10;;;7.30;69.60;;;6.48;54.79;95814.50;5070631;28;20207;-79
2021/10/01 02:51:12;;;;;;;5.25;3.38;;;7.20;69.70;;;6.49;54.90;95808.31;5037438;28;20216;-78
2021/10/01 02:54:07;;;;;;;5.80;3.20;;;7.20;70.00;;;6.48;54.73;95806.69;5021881;28;20672;-79
2021/10/01 02:56:46;;;;;;;4.43;3.17;;;7.20;70.60;;;6.49;55.14;95808.31;5020632;28;20666;-79
2021/10/01 02:59:16;;;;;;;3.65;3.30;;;7.20;71.10;;;6.53;55.13;95809.69;5049168;28;20246;-79
2021/10/01 03:01:46;;;;;;;3.70;2.95;;;7.20;70.00;;;6.56;55.17;95805.97;5018027;28;20240;-79
2021/10/01 03:04:14;;;;;;;4.35;3.42;;;7.20;70.00;;;6.58;54.86;95804.03;5015485;28;20221;-79
2021/10/01 03:06:47;;;;;;;5.20;3.10;;;7.30;70.20;;;6.64;55.08;95802.63;5035174;28;20702;-79
2021/10/01 03:09:17;;;;;;;3.67;3.00;;;7.30;70.50;;;6.67;55.13;95804.94;5048860;28;20307;-78
2021/10/01 03:11:46;;;;;;;5.93;3.47;;;7.30;70.20;;;6.68;55.27;95796.97;5031579;28;20221;-79
2021/10/01 03:14:16;;;;;;;4.32;3.20;;;7.30;70.10;;;6.71;55.25;95794.09;5032032;28;20394;-80
2021/10/01 03:16:44;;;;;;;3.63;3.08;;;7.30;70.30;;;6.72;54.55;95793.09;5050792;28;20594;-79
2021/10/01 03:19:12;;;;;;;3.85;3.10;;;7.40;70.20;;;6.76;55.23;95798.03;5018690;28;20315;-79
2021/10/01 03:21:42;;;;;;;3.70;2.90;;;7.30;70.40;;;6.75;55.00;95793.78;5052883;28;20302;-79
2021/10/01 03:24:10;;;;;;;5.38;3.42;;;7.40;70.40;;;6.78;55.00;95790.91;5018705;28;20287;-79
2021/10/01 03:26:38;;;;;;;4.30;3.22;;;7.40;70.20;;;6.78;55.09;95789.09;5034969;28;20644;-79
2021/10/01 03:29:05;;;;;;;4.00;3.30;;;7.40;70.20;;;6.76;55.21;95793.63;5034404;28;20208;-78
2021/10/01 03:31:37;;;;;;;5.80;3.30;;;7.40;70.20;;;6.73;55.15;95781.72;5015360;28;20236;-80
2021/10/01 03:34:07;;;;;;;3.70;3.20;;;7.40;70.10;;;6.77;55.25;95792.66;5031709;28;20288;-78
2021/10/01 03:36:35;;;;;;;4.40;3.38;;;7.50;70.20;;;6.73;55.20;95781.72;5035944;28;20705;-80
2021/10/01 03:39:03;;;;;;;5.35;3.50;;;7.50;70.20;;;6.71;55.19;95782.81;5050585;28;20548;-79
2021/10/01 03:41:32;;;;;;;5.07;3.30;;;7.40;70.10;;;6.70;55.41;95781.19;5034812;28;20255;-79
2021/10/01 03:43:59;;;;;;;3.72;3.20;;;7.40;70.10;;;6.68;55.17;95776.13;5051036;28;20724;-80
2021/10/01 03:46:26;;;;;;;4.30;3.30;;;7.40;70.10;;;6.67;55.53;95777.09;5051738;28;20295;-79
2021/10/01 03:48:54;;;;;;;4.00;3.30;;;7.40;70.20;;;6.67;55.78;95771.06;5019052;28;20258;-80
2021/10/01 03:51:23;;;;;;;3.88;3.13;;;7.40;70.30;;;6.64;55.57;95772.19;5035194;28;20240;-79
2021/10/01 03:53:54;;;;;;;4.75;3.08;;;7.30;70.20;;;6.60;55.37;95770.00;5042222;28;20198;-80
2021/10/01 03:56:21;;;;;;;4.20;3.22;;;7.30;70.30;;;6.61;55.46;95769.03;5035729;28;20212;-79
2021/10/01 03:58:49;;;;;;;3.92;3.45;;;7.30;70.20;;;6.60;55.46;95778.63;5034928;28;20196;-79
2021/10/01 04:01:17;;;;;;;4.97;3.45;;;7.30;70.30;;;6.58;55.74;95775.38;5019146;28;20226;-80
2021/10/01 04:03:44;;;;;;;4.22;3.55;;;7.30;70.30;;;6.55;55.52;95775.66;5032998;28;20287;-80
2021/10/01 04:06:13;;;;;;;4.03;3.58;;;7.30;70.30;;;6.55;55.43;95773.03;5066973;28;20306;-79
2021/10/01 04:08:41;;;;;;;5.47;4.00;;;7.30;70.70;;;6.53;55.71;95772.34;5035944;28;20283;-80
2021/10/01 04:11:08;;;;;;;3.85;3.45;;;7.30;70.30;;;6.45;56.01;95756.66;5035516;28;20316;-79
2021/10/01 04:13:36;;;;;;;5.57;3.30;;;7.30;70.30;;;6.46;55.79;95766.09;5036323;28;20207;-80
2021/10/01 04:16:04;;;;;;;5.13;3.42;;;7.20;70.30;;;6.45;55.49;95762.66;5036029;28;20216;-79
2021/10/01 04:18:31;;;;;;;4.47;3.40;;;7.20;70.30;;;6.43;55.78;95761.16;5048791;28;20216;-80
2021/10/01 04:20:58;;;;;;;4.68;3.50;;;7.20;70.30;;;6.36;55.69;95755.72;5061521;28;20701;-80
2021/10/01 04:23:26;;;;;;;4.75;3.90;;;7.20;70.40;;;6.32;55.81;95752.56;5035836;28;20230;-80
2021/10/01 04:26:31;;;;;;;6.57;3.75;;;7.20;70.50;;;6.31;55.81;95750.94;5029147;28;20268;-80
2021/10/01 04:28:59;;;;;;;5.70;4.00;;;7.10;70.30;;;6.34;55.62;95755.06;4993423;28;20203;-80
2021/10/01 04:31:26;;;;;;;5.10;3.88;;;7.10;70.30;;;6.32;55.81;95754.38;5009356;28;20641;-80
2021/10/01 04:33:54;;;;;;;5.45;3.70;;;7.10;70.40;;;6.32;56.05;95746.56;5049314;28;20213;-80
2021/10/01 04:36:22;;;;;;;5.75;4.00;;;7.00;70.40;;;6.30;56.06;95748.47;5050082;28;20296;-80
2021/10/01 04:38:50;;;;;;;4.47;3.97;;;7.00;70.40;;;6.28;55.95;95747.81;5033983;28;20612;-79
2021/10/01 04:41:17;;;;;;;6.32;4.18;;;7.00;70.50;;;6.25;55.86;95741.13;5035142;28;20216;-79
2021/10/01 04:43:47;;;;;;;4.95;3.90;;;7.00;70.60;;;6.26;55.96;95750.53;5034791;28;20728;-80
2021/10/01 04:46:15;;;;;;;5.10;4.15;;;7.00;70.60;;;6.22;56.03;95744.78;5050803;28;20218;-79
2021/10/01 04:48:43;;;;;;;4.70;3.47;;;7.00;70.60;;;6.25;55.77;95746.31;5030093;28;20256;-79
2021/10/01 04:51:17;;;;;;;5.22;4.05;;;7.00;70.70;;;6.23;56.21;95748.25;5030890;28;20217;-79
2021/10/01 04:53:44;;;;;;;5.13;4.05;;;7.00;70.80;;;6.19;55.97;95742.50;5047789;28;20205;-80
2021/10/01 04:56:12;;;;;;;7.18;3.83;;;7.00;70.70;;;6.21;56.27;95747.56;5048615;28;20220;-79
2021/10/01 04:58:39;;;;;;;4.45;3.72;;;6.90;70.70;;;6.21;56.26;95755.38;5031176;28;20689;-80
2021/10/01 05:01:24;;;;;;;5.22;3.90;;;6.90;70.80;;;6.18;56.52;95751.28;5068945;28;20238;-79
2021/10/01 05:04:10;;;;;;;4.88;3.83;;;6.90;70.80;;;6.18;56.29;95750.47;5038115;28;20572;-79
2021/10/01 05:06:38;;;;;;;4.78;3.95;;;6.90;70.90;;;6.18;56.17;95751.28;5035388;28;20311;-79
2021/10/01 05:09:24;;;;;;;4.07;3.67;;;6.90;71.00;;;6.17;56.23;95748.81;5051587;28;20202;-79
2021/10/01 05:12:09;;;;;;;5.82;3.78;;;6.90;71.40;;;6.17;56.38;95748.81;5050608;28;20524;-79
2021/10/01 05:14:55;;;;;;;6.28;3.90;;;6.90;71.00;;;6.21;56.37;95755.38;5032339;28;20346;-79
2021/10/01 05:17:40;;;;;;;5.85;4.18;;;6.90;71.10;;;6.23;56.88;95758.66;5035151;28;20234;-80
2021/10/01 05:20:26;;;;;;;5.93;4.30;;;6.90;71.20;;;6.24;56.52;95752.50;5051772;28;20214;-79
2021/10/01 05:23:10;;;;;;;6.13;4.18;;;6.90;71.30;;;6.23;56.61;95756.88;5036653;28;20230;-79
2021/10/01 05:25:37;;;;;;;4.57;3.90;;;6.90;71.30;;;6.32;56.53;95763.00;5064311;28;20659;-79
2021/10/01 05:28:05;;;;;;;4.97;4.22;;;6.90;71.40;;;6.38;56.84;95759.84;5034193;28;20579;-77
2021/10/01 05:30:32;;;;;;;6.05;4.13;;;7.00;71.70;;;6.43;56.73;95761.16;5016800;28;20292;-79
2021/10/01 05:33:05;;;;;;;6.38;4.18;;;7.00;71.60;;;6.47;56.64;95758.13;5040011;28;20607;-79
2021/10/01 05:35:36;;;;;;;4.90;3.83;;;7.00;71.70;;;6.51;56.28;95743.84;5034320;28;20909;-78
2021/10/01 05:38:04;;;;;;;6.45;4.07;;;7.10;72.30;;;6.59;56.55;95753.53;5014057;28;20197;-78
2021/10/01 05:40:32;;;;;;;6.18;4.10;;;7.10;72.00;;;6.67;56.57;95758.03;5049939;28;20215;-79
2021/10/01 05:43:02;;;;;;;5.05;4.30;;;7.10;71.90;;;6.72;56.63;95761.81;5039228;28;20572;-78
2021/10/01 05:45:32;;;;;;;4.57;4.00;;;7.20;72.20;;;6.79;56.75;95756.84;5034118;28;20560;-79
2021/10/01 05:48:18;;;;;;;4.65;3.88;;;7.20;72.20;;;6.86;56.59;95760.50;5036520;28;20214;-78
2021/10/01 05:51:07;;;;;;;5.32;3.90;;;7.30;72.20;;;6.92;56.64;95759.13;5031689;28;20219;-78
2021/10/01 05:56:45;;;;;;;4.40;3.85;;;7.50;72.30;;;7.09;56.99;95746.22;5048056;28;20278;-79
2021/10/01 05:59:21;;;;;;;5.05;3.95;;;7.50;72.30;;;7.17;57.16;95751.50;5037953;28;20207;-79
2021/10/01 06:01:50;;;;;;;4.82;4.07;;;7.60;72.60;;;7.29;57.04;95752.09;5052530;28;20278;-80
2021/10/01 06:04:21;;;;;;;5.85;4.60;;;7.70;72.80;;;7.41;57.17;95753.50;5034856;28;20680;-80
2021/10/01 06:06:48;;;;;;;6.65;4.50;;;7.70;73.70;;;7.55;57.03;95757.34;5088208;28;20239;-80
2021/10/01 06:09:18;;;;;;;5.72;4.53;;;7.80;73.00;;;7.65;56.97;95752.03;5038249;28;20616;-79
2021/10/01 06:11:46;;;;;;;6.78;4.90;;;7.90;73.10;;;7.80;57.04;95754.91;5080061;28;20223;-79
2021/10/01 06:14:18;;;;;;;4.88;4.32;;;8.00;73.20;;;7.89;57.25;95754.00;5051153;28;20216;-80
2021/10/01 06:16:46;;;;;;;7.15;5.10;;;8.10;73.20;;;8.00;57.17;95756.34;5035050;28;20216;-79
2021/10/01 06:19:13;;;;;;;5.25;4.50;;;8.20;73.20;;;8.10;57.26;95756.22;5033021;28;20213;-79
2021/10/01 06:21:40;;;;;;;5.55;4.38;;;8.30;73.20;;;8.23;57.28;95766.25;5049735;28;20226;-79
2021/10/01 06:24:08;;;;;;;5.25;4.30;;;8.40;73.40;;;8.35;57.21;95753.75;5038109;28;20206;-79
2021/10/01 06:26:35;;;;;;;5.30;3.95;;;8.50;73.30;;;8.49;57.04;95755.81;5037904;28;20259;-80
2021/10/01 06:29:02;;;;;;;6.95;3.97;;;8.60;73.40;;;8.62;57.13;95765.00;5037341;28;20618;-78
2021/10/01 06:31:30;;;;;;;6.70;4.82;;;8.70;73.50;;;8.74;57.11;95757.66;5037113;28;20269;-79
2021/10/01 06:33:58;;;;;;;6.70;4.00;;;8.80;73.40;;;8.87;57.32;95757.22;5034412;28;20196;-80
2021/10/01 06:36:25;;;;;;;4.85;4.35;;;8.90;73.20;;;8.97;57.33;95760.50;5036191;28;20648;-78
2021/10/01 06:38:53;;;;;;;5.53;4.43;;;9.00;73.40;;;9.08;57.31;95756.75;5051706;28;20195;-80
2021/10/01 06:41:20;;;;;;;5.57;4.50;;;9.10;73.40;;;9.20;56.92;95749.41;5053058;28;20223;-79
2021/10/01 06:43:48;;;;;;;5.53;4.60;;;9.30;73.40;;;9.28;57.10;95757.28;5019585;28;20219;-79
2021/10/01 06:46:26;;;;;;;6.30;4.10;;;9.40;73.40;;;9.39;56.91;95756.13;5052907;28;20219;-78
2021/10/01 07:20:59;;;;;;;5.32;4.25;;;9.70;73.20;;;9.65;57.10;95753.34;5051900;28;20232;-79
2021/10/01 07:22:02;;;;;;;4.85;4.35;;;10.60;71.70;;;10.53;56.77;95749.06;5052735;28;20226;-76
2021/10/01 08:20:29;;;;;;;4.50;4.05;;;12.80;71.90;;;13.07;56.04;95713.66;5069376;28;20333;-77
2021/10/01 08:22:56;;;;;;;6.60;4.57;;;12.90;72.00;;;13.19;56.01;95717.44;5035888;28;20707;-77
2021/10/01 08:25:23;;;;;;;5.95;4.72;;;13.00;71.90;;;13.30;56.00;95708.22;5052380;28;20561;-77
2021/10/01 08:27:50;;;;;;;5.22;4.72;;;13.10;72.00;;;13.39;56.15;95701.84;5052537;28;20195;-77
2021/10/01 08:30:18;;;;;;;6.82;4.88;;;13.20;71.90;;;13.52;55.83;95706.41;5051746;28;20297;-78
2021/10/01 08:32:45;;;;;;;6.72;4.20;;;13.40;71.90;;;13.64;55.78;95698.78;5032180;28;20200;-77
2021/10/01 08:35:13;;;;;;;4.78;4.03;;;13.50;71.90;;;13.74;55.62;95694.03;5036591;28;20206;-77
2021/10/01 08:37:43;;;;;;;8.02;4.43;;;13.50;71.60;;;13.88;55.60;95694.09;5036108;28;20226;-77
2021/10/01 08:40:11;;;;;;;4.18;3.78;;;13.70;72.70;;;13.99;55.53;95696.19;5034954;28;20209;-77
2021/10/01 08:42:45;;;;;;;4.18;3.78;;;13.80;71.80;;;14.12;55.35;95695.44;5045722;28;20235;-77
2021/10/01 08:45:15;;;;;;;5.53;3.70;;;13.90;71.80;;;14.25;55.29;95697.34;5035191;28;20674;-77
2021/10/01 08:47:43;;;;;;;5.05;3.72;;;14.00;71.70;;;14.36;55.00;95691.50;5031880;28;20204;-78
2021/10/01 08:50:16;;;;;;;4.13;3.17;;;14.10;71.60;;;14.49;54.93;95696.06;5034073;28;20634;-77
2021/10/01 08:52:44;;;;;;;4.63;3.30;;;14.20;71.40;;;14.58;54.97;95689.56;5035388;28;20245;-78
2021/10/01 08:55:12;;;;;;;3.78;3.10;;;14.30;71.40;;;14.69;54.92;95685.56;5047297;28;20196;-76
2021/10/01 08:57:39;;;;;;;5.82;3.47;;;14.50;72.20;;;14.74;54.67;95677.06;5031685;28;20231;-78
2021/10/01 09:00:17;;;;;;;3.72;3.30;;;14.60;71.10;;;14.89;54.51;95683.00;5066030;28;20188;-77
2021/10/01 09:02:44;;;;;;;5.72;3.60;;;14.60;71.00;;;15.00;54.33;95675.50;5034689;28;20219;-77
2021/10/01 09:05:14;;;;;;;3.85;2.97;;;14.80;71.10;;;15.12;54.09;95675.72;5035307;28;20282;-77
2021/10/01 09:07:42;;;;;;;3.22;2.92;;;14.80;70.90;;;15.22;54.14;95670.84;5017363;28;20708;-78
2021/10/01 09:10:15;;;;;;;4.75;3.08;;;15.00;70.90;;;15.31;53.96;95677.56;5010174;28;20216;-77
2021/10/01 09:12:53;;;;;;;4.72;3.15;;;15.10;70.60;;;15.41;53.85;95671.09;5032231;28;20282;-78
2021/10/01 09:15:22;;;;;;;3.15;2.88;;;15.10;70.30;;;15.50;53.71;95670.69;5017463;28;20195;-78
2021/10/01 09:17:58;;;;;;;3.78;3.05;;;15.30;70.80;;;15.59;54.17;95665.97;5035975;28;20179;-78
2021/10/01 09:20:27;;;;;;;3.78;3.28;;;15.30;70.60;;;15.67;53.88;95665.78;5033812;28;20192;-78
2021/10/01 09:23:17;;;;;;;4.60;3.10;;;15.40;70.50;;;15.76;53.40;95662.91;5035461;28;20258;-78
2021/10/01 09:25:45;;;;;;;3.80;3.25;;;15.50;71.20;;;15.80;53.46;95653.56;5030466;28;20266;-77
2021/10/01 09:28:12;;;;;;;4.80;3.50;;;15.60;70.50;;;15.92;53.13;95659.88;5050470;28;20278;-78
2021/10/01 09:30:49;;;;;;;4.15;3.75;;;15.70;70.10;;;15.98;53.20;95659.03;5018585;28;20222;-78
2021/10/01 09:33:20;;;;;;;4.63;3.13;;;15.80;70.00;;;16.06;53.04;95659.84;5034721;28;20253;-79
2021/10/01 09:35:48;;;;;;;4.22;2.95;;;15.80;69.90;;;16.13;52.67;95653.50;5034935;28;20223;-78
2021/10/01 09:38:20;;;;;;;2.90;2.65;;;15.90;69.90;;;16.19;52.90;95651.84;5018277;28;20195;-77
2021/10/01 09:41:31;;;;;;;7.95;4.10;;;16.00;69.80;;;16.25;52.77;95644.94;5051443;28;20620;-78
2021/10/01 09:44:09;;;;;;;4.88;3.30;;;16.00;69.40;;;16.31;52.43;95639.59;5033486;28;20696;-78
2021/10/01 09:46:45;;;;;;;3.90;3.13;;;16.10;70.40;;;16.39;52.48;95640.38;5049077;28;20357;-77
2021/10/01 09:49:17;;;;;;;4.72;3.17;;;16.20;69.50;;;16.45;52.37;95645.66;5045354;28;20241;-77
2021/10/01 09:51:53;;;;;;;5.55;3.60;;;16.30;69.60;;;16.48;51.77;95636.47;5013363;28;20224;-78
2021/10/01 09:54:21;;;;;;;3.38;3.08;;;16.30;68.80;;;16.55;51.71;95639.09;5012938;28;20192;-78
2021/10/01 09:56:49;;;;;;;3.70;3.03;;;16.40;69.20;;;16.59;52.31;95630.50;5013719;28;20216;-78
2021/10/01 09:59:23;;;;;;;4.25;3.50;;;16.40;69.10;;;16.66;51.93;95633.09;5031042;28;20957;-77
2021/10/01 10:02:13;;;;;;;4.35;3.95;;;16.40;69.00;;;16.72;52.13;95629.63;5047914;28;20261;-78
2021/10/01 10:04:54;;;;;;;5.63;3.97;;;16.50;68.90;;;16.80;51.82;95631.22;5050822;28;20309;-78
2021/10/01 10:07:27;;;;;;;4.65;3.78;;;16.60;68.90;;;16.87;51.92;95626.69;5034336;28;20684;-77
2021/10/01 10:10:13;;;;;;;7.45;3.85;;;16.70;68.90;;;16.93;51.91;95630.34;5034583;28;20187;-78
2021/10/01 10:12:44;;;;;;;5.75;3.58;;;16.70;68.70;;;16.99;51.48;95626.03;5018039;28;20227;-78
2021/10/01 10:15:15;;;;;;;6.03;3.85;;;16.70;68.90;;;17.06;51.62;95621.50;5034664;28;20747;-77
2021/10/01 10:17:49;;;;;;;5.93;4.28;;;16.80;68.80;;;17.10;51.26;95627.97;5018022;28;20219;-78
2021/10/01 10:20:20;;;;;;;4.53;4.13;;;16.80;68.50;;;17.13;51.17;95628.34;5034143;28;20696;-78
2021/10/01 10:22:47;;;;;;;4.35;3.75;;;16.90;68.30;;;17.17;50.92;95620.00;5033720;28;20233;-79
2021/10/01 10:25:15;;;;;;;6.38;4.10;;;17.00;68.50;;;17.20;50.92;95620.38;5017662;28;20191;-78
2021/10/01 10:27:42;;;;;;;4.55;3.80;;;17.10;68.30;;;17.23;50.93;95627.88;5034147;28;20273;-78
2021/10/01 10:30:11;;;;;;;4.85;3.70;;;17.10;68.20;;;17.27;51.03;95618.47;5049375;28;20257;-78
2021/10/01 10:32:37;;;;;;;4.05;3.60;;;17.10;68.30;;;17.33;50.93;95618.63;5034109;28;20208;-78
2021/10/01 10:35:07;;;;;;;4.20;3.80;;;17.10;68.10;;;17.40;50.73;95614.88;5033883;28;20195;-78
2021/10/01 10:37:48;;;;;;;4.68;3.33;;;17.20;68.00;;;17.44;51.19;95615.28;5032056;28;20214;-77
2021/10/01 10:40:20;;;;;;;4.70;4.05;;;17.20;68.00;;;17.49;50.96;95612.81;5049381;28;20191;-79
2021/10/01 10:42:51;;;;;;;4.72;3.97;;;17.30;68.00;;;17.55;50.36;95613.75;5014368;28;20227;-78
2021/10/01 10:45:25;;;;;;;6.57;4.40;;;17.30;67.80;;;17.58;50.72;95611.47;5036619;28;20303;-79
2021/10/01 10:48:08;;;;;;;6.43;4.10;;;17.40;67.90;;;17.62;50.13;95603.88;5036159;28;20278;-78
2021/10/01 10:50:50;;;;;;;5.10;4.30;;;17.40;67.60;;;17.68;50.27;95600.34;5053756;28;20222;-79
2021/10/01 10:53:24;;;;;;;5.72;4.15;;;17.40;67.40;;;17.74;50.60;95598.69;5054175;28;20191;-79
2021/10/01 10:56:04;;;;;;;3.90;3.58;;;17.50;67.90;;;17.84;50.58;95600.81;5053632;28;20227;-78
2021/10/01 10:58:39;;;;;;;4.65;4.10;;;17.60;68.50;;;17.85;50.25;95587.31;5055637;28;20656;-78
2021/10/01 11:01:13;;;;;;;4.88;3.97;;;17.60;67.60;;;17.95;49.98;95597.47;5036810;28;20273;-78
2021/10/01 11:03:47;;;;;;;4.68;3.90;;;17.70;67.50;;;18.00;49.98;95588.84;5085340;28;20214;-79
2021/10/01 11:06:19;;;;;;;4.65;3.85;;;17.80;67.60;;;18.06;49.75;95587.94;5053650;28;20222;-81
2021/10/01 11:09:12;;;;;;;5.22;3.67;;;17.80;67.70;;;18.17;50.35;95587.19;5037688;28;20291;-78
2021/10/01 11:11:44;;;;;;;4.47;3.92;;;17.90;67.60;;;18.29;50.14;95584.59;5037200;28;20230;-79
2021/10/01 11:14:22;;;;;;;5.25;4.10;;;17.90;67.70;;;18.48;49.97;95585.38;5036666;28;20200;-80
2021/10/01 11:16:55;;;;;;;8.07;4.40;;;18.10;67.60;;;18.63;50.19;95574.34;5053237;28;20208;-78
2021/10/01 11:19:44;;;;;;;5.90;4.47;;;18.30;67.40;;;18.76;49.79;95572.53;5066813;28;20196;-79
2021/10/01 11:22:34;;;;;;;5.90;4.25;;;18.40;67.30;;;18.90;49.74;95563.31;5017162;28;20243;-79
2021/10/01 11:25:11;;;;;;;4.45;4.05;;;18.60;67.30;;;19.07;49.56;95560.84;5049913;28;20259;-80
2021/10/01 11:27:53;;;;;;;6.15;4.00;;;18.70;67.40;;;19.27;49.86;95555.19;5018068;28;20247;-79
2021/10/01 11:30:23;;;;;;;5.97;3.70;;;18.80;67.00;;;19.45;49.77;95556.13;5050075;28;20543;-79
2021/10/01 11:32:52;;;;;;;4.93;3.78;;;19.00;67.30;;;19.67;49.40;95545.69;5027471;28;20609;-80
2021/10/01 11:35:20;;;;;;;4.18;3.55;;;19.20;67.60;;;19.90;48.92;95550.19;5033206;28;20210;-79
2021/10/01 11:37:50;;;;;;;3.90;3.38;;;19.40;67.40;;;20.09;48.97;95539.38;5017891;28;20184;-80
2021/10/01 11:40:27;;;;;;;4.13;3.53;;;19.60;67.10;;;20.34;48.25;95540.94;5052179;28;20241;-79
2021/10/01 11:43:01;;;;;;;4.78;3.45;;;19.80;66.60;;;20.55;47.96;95528.78;5036427;28;20233;-78
2021/10/01 11:45:32;;;;;;;4.78;3.75;;;20.00;66.40;;;20.76;47.83;95527.28;5035858;28;20684;-79
2021/10/01 11:48:06;;;;;;;5.18;3.88;;;20.20;66.30;;;20.94;46.96;95527.06;5052493;28;20570;-79
2021/10/01 11:50:36;;;;;;;4.40;3.22;;;20.40;65.40;;;21.18;47.55;95526.09;5035863;28;20230;-79
2021/10/01 11:53:07;;;;;;;4.47;3.22;;;20.60;66.00;;;21.36;46.57;95517.84;5044819;28;20422;-78
2021/10/01 11:55:36;;;;;;;4.10;3.35;;;20.70;65.60;;;21.61;46.62;95519.25;5048040;28;20207;-78
2021/10/01 11:58:15;;;;;;;4.13;3.60;;;21.00;65.60;;;21.81;45.90;95508.03;5042268;28;20278;-78
2021/10/01 12:00:43;;;;;;;3.80;2.95;;;21.20;64.40;;;22.03;45.78;95508.03;5032451;28;20222;-78
2021/10/01 12:03:16;;;;;;;4.30;3.22;;;21.40;65.30;;;22.27;45.33;95504.28;5032993;28;20212;-79
2021/10/01 12:05:55;;;;;;;6.38;3.53;;;21.60;64.70;;;22.53;44.93;95492.00;5049769;28;20216;-78
2021/10/01 12:08:24;;;;;;;3.00;2.70;;;21.80;64.70;;;22.78;44.90;95494.09;5054974;28;20551;-79
2021/10/01 12:10:55;;;;;;;2.80;2.42;;;22.00;65.00;;;23.02;44.48;95486.53;5018929;28;20315;-78
2021/10/01 12:13:35;;;;;;;3.90;2.53;;;22.30;64.60;;;23.32;44.96;95487.03;5070569;28;20199;-79
2021/10/01 12:16:05;;;;;;;3.15;2.58;;;22.50;64.40;;;23.56;43.89;95492.78;5052673;28;20702;-79
2021/10/01 12:18:42;;;;;;;2.85;2.60;;;22.80;64.10;;;23.83;43.95;95483.78;5051737;28;20198;-80
2021/10/01 12:21:18;;;;;;;2.83;2.60;;;23.00;63.50;;;24.07;43.36;95481.50;5036376;28;20235;-79